createdAt,value
2023-03-21T00:00:45.381Z,15.72
2023-03-21T00:03:22.645Z,15.68
2023-03-21T00:05:52.068Z,15.66
2023-03-21T00:08:21.528Z,15.63
2023-03-21T00:10:57.230Z,15.62
2023-03-21T00:13:26.324Z,15.58
2023-03-21T00:16:07.133Z,15.55
2023-03-21T00:18:48.152Z,15.52
2023-03-21T00:21:43.936Z,15.50
2023-03-21T00:24:08.787Z,15.46
2023-03-21T00:26:37.190Z,15.42
2023-03-21T00:29:05.661Z,15.38
2023-03-21T00:31:35.142Z,15.35
2023-03-21T00:34:03.269Z,15.31
2023-03-21T00:36:32.510Z,15.26
2023-03-21T00:39:00.735Z,15.22
2023-03-21T00:41:41.989Z,15.18
2023-03-21T00:44:12.618Z,15.15
2023-03-21T00:46:54.400Z,15.12
2023-03-21T00:49:30.392Z,15.09
2023-03-21T00:52:17.041Z,15.06
2023-03-21T00:54:50.598Z,15.03
2023-03-21T00:57:20.358Z,15.00
2023-03-21T00:59:50.833Z,14.99
2023-03-21T01:03:36.086Z,14.95
2023-03-21T01:06:04.795Z,14.93
2023-03-21T01:08:54.538Z,14.90
2023-03-21T01:11:26.778Z,14.85
2023-03-21T01:14:07.259Z,14.83
2023-03-21T01:16:45.019Z,14.80
2023-03-21T01:19:24.970Z,14.78
2023-03-21T01:21:57.410Z,14.76
2023-03-21T01:24:26.161Z,14.74
2023-03-21T01:26:54.379Z,14.72
2023-03-21T01:29:22.675Z,14.69
2023-03-21T01:31:50.947Z,14.67
2023-03-21T01:34:19.278Z,14.65
2023-03-21T01:36:48.085Z,14.63
2023-03-21T01:39:17.825Z,14.62
2023-03-21T01:41:46.355Z,14.59
2023-03-21T01:44:17.951Z,14.56
2023-03-21T01:49:46.325Z,14.49
2023-03-21T01:52:33.516Z,14.46
2023-03-21T01:55:09.956Z,14.42
2023-03-21T01:58:02.349Z,14.39
2023-03-21T02:00:33.912Z,14.34
2023-03-21T02:03:15.331Z,14.30
2023-03-21T02:06:03.175Z,14.27
2023-03-21T02:08:39.644Z,14.23
2023-03-21T02:11:09.565Z,14.18
2023-03-21T02:13:38.869Z,14.14
2023-03-21T02:16:30.319Z,14.11
2023-03-21T02:19:44.519Z,14.07
2023-03-21T02:22:47.977Z,14.03
2023-03-21T02:25:41.703Z,14.00
2023-03-21T02:28:37.516Z,13.97
2023-03-21T02:31:32.744Z,13.95
2023-03-21T02:34:10.862Z,13.93
2023-03-21T02:36:55.857Z,13.92
2023-03-21T02:39:42.216Z,13.89
2023-03-21T02:42:25.466Z,13.87
2023-03-21T02:45:28.066Z,13.84
2023-03-21T02:48:26.860Z,13.83
2023-03-21T02:51:01.055Z,13.81
2023-03-21T02:53:35.236Z,13.80
2023-03-21T02:56:05.003Z,13.79
2023-03-21T02:58:33.908Z,13.78
2023-03-21T03:01:02.069Z,13.77
2023-03-21T03:03:34.450Z,13.75
2023-03-21T03:06:07.999Z,13.74
2023-03-21T03:09:03.355Z,13.73
2023-03-21T03:11:33.625Z,13.72
2023-03-21T03:15:00.203Z,13.69
2023-03-21T03:17:29.807Z,13.67
2023-03-21T03:20:17.752Z,13.65
2023-03-21T03:23:05.884Z,13.64
2023-03-21T03:25:53.560Z,13.62
2023-03-21T03:28:33.538Z,13.59
2023-03-21T03:31:09.200Z,13.57
2023-03-21T03:33:41.386Z,13.55
2023-03-21T03:36:25.029Z,13.53
2023-03-21T03:39:03.053Z,13.51
2023-03-21T03:41:57.708Z,13.48
2023-03-21T03:44:22.115Z,13.46
2023-03-21T03:47:08.082Z,13.45
2023-03-21T03:49:51.183Z,13.42
2023-03-21T03:52:34.235Z,13.38
2023-03-21T03:55:04.120Z,13.34
2023-03-21T03:57:32.607Z,13.32
2023-03-21T04:00:01.115Z,13.30
2023-03-21T04:02:30.319Z,13.28
2023-03-21T04:04:59.388Z,13.26
2023-03-21T04:07:28.887Z,13.24
2023-03-21T04:09:57.892Z,13.22
2023-03-21T04:12:26.671Z,13.21
2023-03-21T04:14:57.069Z,13.21
2023-03-21T04:17:30.197Z,13.20
2023-03-21T04:20:10.817Z,13.19
2023-03-21T04:22:41.376Z,13.16
2023-03-21T04:25:10.005Z,13.14
2023-03-21T04:27:38.104Z,13.12
2023-03-21T04:30:08.398Z,13.10
2023-03-21T04:32:36.962Z,13.09
2023-03-21T04:35:08.479Z,13.08
2023-03-21T04:37:37.895Z,13.07
2023-03-21T04:40:07.339Z,13.05
2023-03-21T04:42:35.867Z,13.04
2023-03-21T04:45:05.307Z,13.03
2023-03-21T04:47:33.943Z,13.01
2023-03-21T04:50:02.603Z,12.99
2023-03-21T04:52:30.780Z,12.97
2023-03-21T04:54:58.970Z,12.95
2023-03-21T04:57:27.655Z,12.94
2023-03-21T04:59:56.281Z,12.93
2023-03-21T05:02:24.556Z,12.91
2023-03-21T05:04:53.190Z,12.88
2023-03-21T05:07:21.533Z,12.87
2023-03-21T05:09:49.909Z,12.85
2023-03-21T05:12:18.305Z,12.84
2023-03-21T05:14:46.570Z,12.83
2023-03-21T05:17:14.700Z,12.83
2023-03-21T05:19:43.236Z,12.82
2023-03-21T05:22:11.861Z,12.81
2023-03-21T05:24:40.027Z,12.79
2023-03-21T05:27:08.593Z,12.78
2023-03-21T05:29:36.919Z,12.76
2023-03-21T05:32:05.371Z,12.75
2023-03-21T05:34:33.895Z,12.75
2023-03-21T05:37:02.273Z,12.73
2023-03-21T05:39:30.693Z,12.73
2023-03-21T05:41:59.707Z,12.72
2023-03-21T05:44:28.194Z,12.71
2023-03-21T05:46:56.534Z,12.70
2023-03-21T05:49:25.002Z,12.69
2023-03-21T05:51:53.366Z,12.67
2023-03-21T05:54:21.760Z,12.67
2023-03-21T05:56:50.779Z,12.66
2023-03-21T05:59:19.108Z,12.63
2023-03-21T06:01:47.886Z,12.63
2023-03-21T06:04:16.264Z,12.62
2023-03-21T06:06:44.549Z,12.61
2023-03-21T06:09:13.057Z,12.60
2023-03-21T06:11:46.640Z,12.59
2023-03-21T06:14:15.788Z,12.59
2023-03-21T06:16:45.147Z,12.59
2023-03-21T06:19:13.448Z,12.58
2023-03-21T06:21:42.100Z,12.58
2023-03-21T06:24:10.557Z,12.57
2023-03-21T06:26:38.878Z,12.58
2023-03-21T06:29:07.034Z,12.57
2023-03-21T06:31:35.377Z,12.58
2023-03-21T06:34:04.481Z,12.58
2023-03-21T06:36:33.020Z,12.59
2023-03-21T06:39:01.682Z,12.59
2023-03-21T06:41:29.937Z,12.60
2023-03-21T06:43:58.118Z,12.63
2023-03-21T06:46:26.322Z,12.67
2023-03-21T06:48:54.799Z,12.72
2023-03-21T06:51:23.485Z,12.78
2023-03-21T06:53:52.422Z,12.85
2023-03-21T06:56:20.626Z,12.90
2023-03-21T06:58:49.441Z,12.97
2023-03-21T07:01:17.738Z,13.08
2023-03-21T07:03:46.141Z,13.25
2023-03-21T07:06:14.863Z,13.61
2023-03-21T07:08:43.189Z,14.06
2023-03-21T07:11:11.420Z,14.45
2023-03-21T07:13:40.199Z,14.68
2023-03-21T07:16:09.158Z,14.82
2023-03-21T07:18:37.832Z,14.92
2023-03-21T07:21:07.121Z,14.94
2023-03-21T07:23:36.064Z,14.92
2023-03-21T07:26:06.269Z,14.88
2023-03-21T07:28:34.784Z,14.85
2023-03-21T07:31:07.266Z,14.81
2023-03-21T07:33:35.597Z,14.78
2023-03-21T07:36:09.399Z,14.76
2023-03-21T07:38:39.194Z,14.75
2023-03-21T07:41:07.512Z,14.72
2023-03-21T07:43:37.170Z,14.70
2023-03-21T07:46:07.270Z,14.67
2023-03-21T07:48:35.685Z,14.66
2023-03-21T07:51:04.761Z,14.67
2023-03-21T07:53:32.858Z,14.76
2023-03-21T07:56:01.150Z,14.89
2023-03-21T07:58:29.642Z,15.05
2023-03-21T08:00:58.791Z,15.19
2023-03-21T08:03:27.035Z,15.34
2023-03-21T08:05:56.742Z,15.49
2023-03-21T08:08:25.097Z,15.66
2023-03-21T08:10:53.198Z,15.81
2023-03-21T08:13:22.064Z,15.95
2023-03-21T08:15:50.316Z,16.10
2023-03-21T08:18:18.841Z,16.23
2023-03-21T08:20:56.053Z,16.34
2023-03-21T08:23:25.068Z,16.46
2023-03-21T08:25:57.448Z,16.60
2023-03-21T08:28:25.888Z,16.71
2023-03-21T08:30:54.523Z,16.78
2023-03-21T08:33:23.470Z,16.83
2023-03-21T08:35:53.314Z,16.85
2023-03-21T08:38:21.571Z,16.87
2023-03-21T08:40:50.809Z,16.92
2023-03-21T08:43:19.458Z,16.98
2023-03-21T08:45:47.685Z,16.99
2023-03-21T08:48:16.186Z,16.98
2023-03-21T08:50:45.235Z,17.00
2023-03-21T08:53:13.575Z,16.99
2023-03-21T08:55:43.571Z,16.97
2023-03-21T08:58:11.842Z,16.96
2023-03-21T09:00:41.590Z,16.98
2023-03-21T09:03:11.681Z,17.04
2023-03-21T09:05:40.541Z,17.13
2023-03-21T09:08:09.436Z,17.21
2023-03-21T09:10:37.644Z,17.29
2023-03-21T09:13:06.028Z,17.36
2023-03-21T09:15:34.207Z,17.44
2023-03-21T09:18:03.521Z,17.53
2023-03-21T09:20:31.713Z,17.62
2023-03-21T09:22:59.976Z,17.65
2023-03-21T09:25:28.963Z,17.71
2023-03-21T09:28:00.125Z,17.75
2023-03-21T09:30:28.390Z,17.80
2023-03-21T09:32:56.599Z,17.83
2023-03-21T09:35:25.059Z,17.81
2023-03-21T09:37:53.654Z,17.77
2023-03-21T09:40:48.538Z,17.71
2023-03-21T09:43:31.571Z,17.65
2023-03-21T09:46:19.656Z,17.59
2023-03-21T09:48:58.447Z,17.48
2023-03-21T09:51:35.692Z,17.40
2023-03-21T09:54:12.871Z,17.30
2023-03-21T09:56:43.269Z,17.22
2023-03-21T09:59:33.448Z,17.20
2023-03-21T10:02:03.032Z,17.21
2023-03-21T10:04:31.370Z,17.26
2023-03-21T10:07:02.817Z,17.30
2023-03-21T10:09:32.929Z,17.39
2023-03-21T10:12:20.396Z,17.50
2023-03-21T10:14:54.944Z,17.59
2023-03-21T10:17:40.707Z,17.66
2023-03-21T10:20:17.894Z,17.70
2023-03-21T10:22:48.442Z,17.68
2023-03-21T10:25:20.469Z,17.58
2023-03-21T10:27:50.821Z,17.43
2023-03-21T10:30:47.101Z,17.32
2023-03-21T10:33:20.134Z,17.22
2023-03-21T10:35:55.451Z,17.14
2023-03-21T10:38:26.293Z,17.11
2023-03-21T10:40:54.752Z,17.07
2023-03-21T10:43:34.143Z,17.02
2023-03-21T10:46:35.838Z,16.95
2023-03-21T10:49:08.730Z,16.92
2023-03-21T10:51:39.664Z,16.85
2023-03-21T10:54:18.580Z,16.78
2023-03-21T10:57:09.003Z,16.75
2023-03-21T10:59:47.969Z,16.74
2023-03-21T11:02:48.220Z,16.76
2023-03-21T11:05:26.618Z,16.89
2023-03-21T11:08:01.537Z,17.08
2023-03-21T11:10:38.509Z,17.24
2023-03-21T11:13:19.379Z,17.39
2023-03-21T11:16:07.684Z,17.53
2023-03-21T11:18:40.471Z,17.68
2023-03-21T11:21:12.174Z,17.81
2023-03-21T11:23:47.028Z,17.86
2023-03-21T11:26:37.613Z,17.84
2023-03-21T11:29:35.983Z,17.83
2023-03-21T11:32:26.707Z,17.86
2023-03-21T11:34:59.337Z,17.89
2023-03-21T11:37:34.000Z,17.93
2023-03-21T11:40:15.000Z,17.92
2023-03-21T11:42:45.292Z,17.82
2023-03-21T11:45:28.989Z,17.81
2023-03-21T11:48:00.838Z,17.90
2023-03-21T11:50:44.796Z,18.03
2023-03-21T11:53:31.626Z,18.14
2023-03-21T11:56:27.180Z,18.21
2023-03-21T11:59:19.983Z,18.36
2023-03-21T12:02:10.489Z,18.48
2023-03-21T12:04:42.729Z,18.47
2023-03-21T12:07:27.378Z,18.49
2023-03-21T12:10:30.613Z,18.51
2023-03-21T12:13:16.218Z,18.63
2023-03-21T12:15:59.976Z,18.71
2023-03-21T12:18:50.964Z,18.76
2023-03-21T12:21:41.469Z,18.73
2023-03-21T12:24:15.268Z,18.72
2023-03-21T12:26:58.097Z,18.69
2023-03-21T12:29:41.595Z,18.76
2023-03-21T12:32:32.520Z,18.91
2023-03-21T12:35:14.077Z,19.01
2023-03-21T12:37:55.468Z,19.07
2023-03-21T12:40:56.096Z,19.11
2023-03-21T12:43:53.415Z,19.16
2023-03-21T12:46:26.249Z,19.10
2023-03-21T12:49:03.434Z,19.04
2023-03-21T12:51:35.077Z,19.03
2023-03-21T12:54:32.913Z,19.10
2023-03-21T12:57:23.135Z,19.23
2023-03-21T13:00:03.615Z,19.26
2023-03-21T13:02:42.121Z,19.31
2023-03-21T13:05:32.375Z,19.32
2023-03-21T13:08:40.729Z,19.23
2023-03-21T13:11:15.824Z,19.20
2023-03-21T13:14:10.832Z,19.20
2023-03-21T13:16:53.182Z,19.14
2023-03-21T13:19:34.467Z,19.13
2023-03-21T13:22:20.644Z,19.13
2023-03-21T13:24:55.355Z,19.15
2023-03-21T13:27:31.251Z,19.19
2023-03-21T13:30:18.833Z,19.15
2023-03-21T13:32:51.490Z,19.08
2023-03-21T13:35:24.623Z,19.04
2023-03-21T13:38:03.107Z,18.99
2023-03-21T13:40:39.105Z,18.88
2023-03-21T13:43:52.314Z,18.78
2023-03-21T13:46:52.976Z,18.81
2023-03-21T13:49:29.248Z,18.97
2023-03-21T13:52:01.782Z,19.11
2023-03-21T13:54:52.128Z,19.24
2023-03-21T13:57:50.063Z,19.44
2023-03-21T14:00:29.387Z,19.51
2023-03-21T14:03:08.616Z,19.47
2023-03-21T14:05:40.017Z,19.45
2023-03-21T14:08:24.774Z,19.41
2023-03-21T14:11:00.356Z,19.44
2023-03-21T14:13:31.327Z,19.46
2023-03-21T14:16:11.259Z,19.46
2023-03-21T14:18:54.984Z,19.54
2023-03-21T14:21:27.538Z,19.59
2023-03-21T14:24:11.576Z,19.57
2023-03-21T14:27:06.605Z,19.58
2023-03-21T14:29:35.890Z,19.60
2023-03-21T14:32:06.560Z,19.53
2023-03-21T14:34:36.177Z,19.45
2023-03-21T14:37:10.995Z,19.39
2023-03-21T14:39:39.119Z,19.33
2023-03-21T14:42:15.090Z,19.26
2023-03-21T14:44:57.297Z,19.22
2023-03-21T14:47:28.918Z,19.22
2023-03-21T14:49:59.174Z,19.25
2023-03-21T14:52:32.041Z,19.28
2023-03-21T14:55:05.562Z,19.24
2023-03-21T14:57:34.763Z,19.12
2023-03-21T15:00:08.907Z,19.04
2023-03-21T15:02:40.217Z,18.96
2023-03-21T15:05:25.435Z,18.86
2023-03-21T15:08:03.108Z,18.73
2023-03-21T15:10:31.725Z,18.66
2023-03-21T15:13:13.554Z,18.67
2023-03-21T15:15:45.056Z,18.67
2023-03-21T15:18:22.568Z,18.62
2023-03-21T15:20:52.765Z,18.54
2023-03-21T15:23:34.131Z,18.52
2023-03-21T15:26:06.717Z,18.51
2023-03-21T15:28:36.303Z,18.53
2023-03-21T15:31:06.797Z,18.54
2023-03-21T15:33:35.569Z,18.52
2023-03-21T15:36:10.244Z,18.50
2023-03-21T15:38:41.782Z,18.46
2023-03-21T15:41:26.706Z,18.42
2023-03-21T15:44:00.980Z,18.39
2023-03-21T15:46:41.932Z,18.39
2023-03-21T15:49:13.280Z,18.43
2023-03-21T15:51:45.569Z,18.38
2023-03-21T15:54:21.668Z,18.34
2023-03-21T15:56:54.821Z,18.27
2023-03-21T15:59:28.102Z,18.18
2023-03-21T16:01:57.570Z,18.13
2023-03-21T16:04:26.295Z,18.16
2023-03-21T16:07:04.646Z,18.22
2023-03-21T16:09:44.940Z,18.28
2023-03-21T16:12:17.495Z,18.34
2023-03-21T16:14:47.252Z,18.37
2023-03-21T16:17:35.443Z,18.37
2023-03-21T16:20:05.574Z,18.33
2023-03-21T16:22:35.841Z,18.26
2023-03-21T16:25:06.270Z,18.17
2023-03-21T16:27:34.643Z,18.10
2023-03-21T16:30:03.550Z,18.05
2023-03-21T16:32:35.902Z,18.01
2023-03-21T16:35:16.178Z,18.00
2023-03-21T16:37:45.438Z,17.98
2023-03-21T16:40:22.335Z,17.97
2023-03-21T16:42:51.266Z,17.96
2023-03-21T16:45:20.820Z,17.95
2023-03-21T16:47:51.054Z,17.95
2023-03-21T16:50:42.715Z,17.89
2023-03-21T16:53:11.013Z,17.82
2023-03-21T16:55:39.793Z,17.75
2023-03-21T16:58:09.274Z,17.71
2023-03-21T17:00:39.034Z,17.65
2023-03-21T17:03:15.837Z,17.58
2023-03-21T17:05:45.590Z,17.51
2023-03-21T17:08:20.658Z,17.50
2023-03-21T17:10:49.554Z,17.49
2023-03-21T17:13:18.289Z,17.46
2023-03-21T17:15:47.428Z,17.47
2023-03-21T17:18:16.639Z,17.48
2023-03-21T17:20:46.107Z,17.48
2023-03-21T17:23:15.703Z,17.46
2023-03-21T17:25:45.963Z,17.45
2023-03-21T17:28:21.392Z,17.45
2023-03-21T17:30:54.916Z,17.44
2023-03-21T17:33:23.374Z,17.41
2023-03-21T17:35:51.643Z,17.41
2023-03-21T17:38:19.805Z,17.39
2023-03-21T17:40:50.109Z,17.35
2023-03-21T17:43:20.164Z,17.28
2023-03-21T17:45:48.352Z,17.21
2023-03-21T17:48:16.624Z,17.14
2023-03-21T17:50:45.202Z,17.09
2023-03-21T17:53:15.000Z,17.02
2023-03-21T17:55:43.056Z,16.99
2023-03-21T17:58:12.002Z,16.96
2023-03-21T18:00:42.250Z,16.93
2023-03-21T18:03:10.412Z,16.91
2023-03-21T18:05:38.671Z,16.90
2023-03-21T18:08:12.133Z,16.88
2023-03-21T18:10:42.065Z,16.85
2023-03-21T18:13:11.457Z,16.81
2023-03-21T18:15:39.774Z,16.78
2023-03-21T18:18:09.947Z,16.77
2023-03-21T18:20:52.040Z,16.75
2023-03-21T18:23:22.353Z,16.73
2023-03-21T18:25:51.044Z,16.71
2023-03-21T18:28:22.353Z,16.70
2023-03-21T18:33:41.709Z,16.66
2023-03-21T18:36:13.940Z,16.66
2023-03-21T18:38:43.832Z,16.65
2023-03-21T18:41:12.344Z,16.65
2023-03-21T18:46:29.786Z,16.62
2023-03-21T18:48:57.992Z,16.61
2023-03-21T18:51:26.720Z,16.60
2023-03-21T18:54:01.850Z,16.59
2023-03-21T18:57:26.811Z,16.58
2023-03-21T18:59:19.770Z,16.56
2023-03-21T19:01:49.794Z,16.52
2023-03-21T19:04:29.330Z,16.50
2023-03-21T19:06:58.797Z,16.50
2023-03-21T19:09:31.250Z,16.51
2023-03-21T19:12:03.316Z,16.50
2023-03-21T19:14:31.426Z,16.48
2023-03-21T19:17:53.464Z,16.49
2023-03-21T19:19:48.536Z,16.48
2023-03-21T19:22:17.518Z,16.49
2023-03-21T19:24:45.895Z,16.50
2023-03-21T19:27:14.626Z,16.50
2023-03-21T19:29:42.820Z,16.49
2023-03-21T19:32:11.001Z,16.48
2023-03-21T19:34:39.383Z,16.46
2023-03-21T19:37:09.084Z,16.45
2023-03-21T19:39:37.383Z,16.44
2023-03-21T19:42:15.993Z,16.43
2023-03-21T19:44:46.011Z,16.41
2023-03-21T19:47:14.866Z,16.41
2023-03-21T19:50:32.986Z,16.40
2023-03-21T19:52:31.799Z,16.40
2023-03-21T19:55:00.030Z,16.40
2023-03-21T19:57:29.202Z,16.39
2023-03-21T19:59:59.060Z,16.39
2023-03-21T20:02:36.565Z,16.39
2023-03-21T20:05:07.720Z,16.40
2023-03-21T20:07:36.273Z,16.42
2023-03-21T20:10:06.312Z,16.42
2023-03-21T20:12:35.439Z,16.41
2023-03-21T20:15:16.614Z,16.41
2023-03-21T20:17:47.747Z,16.42
2023-03-21T20:20:17.551Z,16.42
2023-03-21T20:25:41.746Z,16.43
2023-03-21T20:28:16.180Z,16.43
2023-03-21T20:30:47.621Z,16.43
2023-03-21T20:33:16.896Z,16.42
2023-03-21T20:36:32.209Z,16.43
2023-03-21T20:38:34.385Z,16.44
2023-03-21T20:41:05.168Z,16.45
2023-03-21T20:44:20.820Z,16.44
2023-03-21T20:46:22.800Z,16.45
2023-03-21T20:48:51.516Z,16.45
2023-03-21T20:54:08.259Z,16.46
2023-03-21T20:56:36.630Z,16.47
2023-03-21T20:59:17.356Z,16.47
2023-03-21T21:01:49.381Z,16.48
2023-03-21T21:04:19.170Z,16.48
2023-03-21T21:06:48.815Z,16.48
2023-03-21T21:09:17.858Z,16.48
2023-03-21T21:14:35.717Z,16.47
2023-03-21T21:17:23.212Z,16.45
2023-03-21T21:19:54.020Z,16.43
2023-03-21T21:22:22.286Z,16.42
2023-03-21T21:24:50.398Z,16.40
2023-03-21T21:27:18.585Z,16.40
2023-03-21T21:29:46.686Z,16.38
2023-03-21T21:32:14.864Z,16.37
2023-03-21T21:34:43.594Z,16.37
2023-03-21T21:37:11.742Z,16.35
2023-03-21T21:39:39.841Z,16.34
2023-03-21T21:42:08.069Z,16.32
2023-03-21T21:44:36.313Z,16.30
2023-03-21T21:47:04.492Z,16.29
2023-03-21T21:49:34.103Z,16.27
2023-03-21T21:52:02.246Z,16.25
2023-03-21T21:54:31.274Z,16.22
2023-03-21T21:57:00.191Z,16.19
2023-03-21T21:59:28.869Z,16.16
2023-03-21T22:01:56.948Z,16.13
2023-03-21T22:04:25.212Z,16.08
2023-03-21T22:06:55.102Z,16.05
2023-03-21T22:09:23.601Z,16.02
2023-03-21T22:11:51.845Z,15.98
2023-03-21T22:14:20.067Z,15.95
2023-03-21T22:16:48.441Z,15.93
2023-03-21T22:19:16.824Z,15.93
2023-03-21T22:21:44.967Z,15.92
2023-03-21T22:24:13.088Z,15.91
2023-03-21T22:26:41.408Z,15.91
2023-03-21T22:29:09.688Z,15.92
2023-03-21T22:31:39.127Z,15.91
2023-03-21T22:34:08.936Z,15.92
2023-03-21T22:36:38.125Z,15.91
2023-03-21T22:39:06.248Z,15.91
2023-03-21T22:41:34.545Z,15.90
2023-03-21T22:44:02.703Z,15.90
2023-03-21T22:46:30.840Z,15.89
2023-03-21T22:48:59.162Z,15.87
2023-03-21T22:51:27.826Z,15.84
2023-03-21T22:53:56.082Z,15.83
2023-03-21T22:56:24.716Z,15.81
2023-03-21T22:58:55.254Z,15.79
2023-03-21T23:01:23.684Z,15.76
2023-03-21T23:03:51.928Z,15.73
2023-03-21T23:06:20.211Z,15.72
2023-03-21T23:08:48.528Z,15.71
2023-03-21T23:11:16.963Z,15.69
2023-03-21T23:13:45.054Z,15.67
2023-03-21T23:16:15.622Z,15.65
2023-03-21T23:18:44.038Z,15.63
2023-03-21T23:21:12.177Z,15.61
2023-03-21T23:23:41.876Z,15.59
2023-03-21T23:26:11.520Z,15.57
2023-03-21T23:28:39.586Z,15.54
2023-03-21T23:31:16.458Z,15.52
2023-03-21T23:33:45.649Z,15.49
2023-03-21T23:36:15.489Z,15.45
2023-03-21T23:38:44.790Z,15.42
2023-03-21T23:41:24.037Z,15.41
2023-03-21T23:43:52.734Z,15.39
2023-03-21T23:46:21.102Z,15.37
2023-03-21T23:48:49.807Z,15.36
2023-03-21T23:51:18.739Z,15.35
2023-03-21T23:53:47.840Z,15.33
2023-03-21T23:56:22.048Z,15.31
2023-03-21T23:58:50.708Z,15.29
